Time;durP1;ratioP1;P1;durP2;ratioP2;P2;SDS_P1;SDS_P2;PMS_P1;PMS_P2;Temp;Humidity;BMP_temperature;BMP_pressure;BME280_temperature;BME280_humidity;BME280_pressure;Samples;Min_cycle;Max_cycle;Signal;HPM_P1;HPM_P2
2023/07/23 00:00:14;;;;;;;10.82;6.40;;;14.40;99.90;;;;;;5054853;28;20093;-88
2023/07/23 00:02:40;;;;;;;9.57;6.38;;;14.40;99.90;;;;;;5067881;28;20875;-88
2023/07/23 00:05:06;;;;;;;9.10;6.60;;;14.40;99.90;;;;;;5049915;28;20384;-89
2023/07/23 00:07:31;;;;;;;8.68;5.97;;;14.40;99.90;;;;;;5065962;28;20045;-87
2023/07/23 00:09:57;;;;;;;9.25;6.00;;;14.40;99.90;;;;;;5049544;28;20418;-87
2023/07/23 00:12:22;;;;;;;10.40;6.32;;;14.60;99.90;;;;;;5066120;28;20052;-88
2023/07/23 00:14:48;;;;;;;9.57;6.03;;;14.30;99.90;;;;;;5060969;28;20060;-86
2023/07/23 00:17:14;;;;;;;9.32;5.82;;;14.40;99.90;;;;;;5072023;28;20131;-87
2023/07/23 00:19:39;;;;;;;11.90;6.22;;;14.80;99.90;;;;;;5053710;28;20051;-88
2023/07/23 00:22:05;;;;;;;6.15;5.15;;;14.30;99.90;;;;;;5070785;28;20055;-86
2023/07/23 00:24:33;;;;;;;7.20;5.82;;;14.30;99.90;;;;;;5078704;28;20040;-87
2023/07/23 00:26:58;;;;;;;7.68;5.75;;;14.40;99.90;;;;;;5090252;28;20048;-87
2023/07/23 00:29:24;;;;;;;10.75;6.53;;;14.30;99.90;;;;;;5073437;28;20050;-88
2023/07/23 00:31:49;;;;;;;9.32;6.05;;;14.40;99.90;;;;;;5068008;28;20292;-89
2023/07/23 00:34:15;;;;;;;7.95;6.15;;;14.30;99.90;;;;;;5054566;28;20080;-89
2023/07/23 00:36:41;;;;;;;10.95;6.20;;;14.40;99.90;;;;;;5053309;28;20068;-87
2023/07/23 00:39:06;;;;;;;10.32;6.20;;;14.40;99.90;;;;;;5053423;28;20052;-87
2023/07/23 00:41:33;;;;;;;9.00;6.63;;;14.40;99.90;;;;;;5069800;28;20045;-88
2023/07/23 00:43:59;;;;;;;10.13;7.10;;;14.30;99.90;;;;;;5054051;28;20056;-87
2023/07/23 00:46:24;;;;;;;9.82;6.95;;;14.60;99.90;;;;;;5069249;28;20482;-87
2023/07/23 00:48:50;;;;;;;7.85;6.07;;;14.40;99.90;;;;;;5069612;28;20538;-86
2023/07/23 00:51:16;;;;;;;8.80;6.45;;;14.40;99.90;;;;;;5052269;28;20090;-87
2023/07/23 00:53:43;;;;;;;9.15;6.70;;;14.60;99.90;;;;;;5072824;28;20047;-86
2023/07/23 00:56:09;;;;;;;9.73;6.93;;;14.60;99.90;;;;;;5072737;28;20421;-86
2023/07/23 00:58:34;;;;;;;10.73;6.85;;;14.40;99.90;;;;;;5089964;28;20044;-87
2023/07/23 01:01:00;;;;;;;8.68;6.32;;;14.40;99.90;;;;;;5085933;28;20117;-86
2023/07/23 01:03:26;;;;;;;10.15;6.50;;;14.40;99.90;;;;;;5069750;28;20060;-87
2023/07/23 01:05:54;;;;;;;9.50;6.55;;;14.40;99.90;;;;;;5073284;28;20150;-87
2023/07/23 01:08:21;;;;;;;9.35;6.85;;;14.60;99.90;;;;;;5068968;28;20522;-87
2023/07/23 01:10:47;;;;;;;8.77;6.68;;;14.40;99.90;;;;;;5068930;28;20071;-88
2023/07/23 01:13:15;;;;;;;11.60;6.82;;;14.30;99.90;;;;;;5068929;28;20075;-87
2023/07/23 01:15:40;;;;;;;11.13;7.22;;;14.40;99.90;;;;;;5069178;28;20040;-88
2023/07/23 01:18:06;;;;;;;11.82;6.80;;;14.30;99.90;;;;;;5083396;28;20123;-87
2023/07/23 01:20:32;;;;;;;8.18;6.15;;;14.40;99.90;;;;;;5088871;28;20067;-87
2023/07/23 01:22:58;;;;;;;8.40;6.53;;;14.50;99.90;;;;;;5089744;28;20036;-87
2023/07/23 01:25:23;;;;;;;11.05;6.18;;;14.30;99.90;;;;;;5086642;28;20043;-88
2023/07/23 01:27:49;;;;;;;11.88;7.38;;;14.40;99.90;;;;;;5071242;28;20122;-88
2023/07/23 01:30:14;;;;;;;9.88;6.95;;;14.30;99.90;;;;;;5069355;28;20059;-86
2023/07/23 01:32:41;;;;;;;11.70;7.00;;;14.30;99.90;;;;;;5069167;28;20560;-88
2023/07/23 01:35:11;;;;;;;10.55;6.78;;;14.30;99.90;;;;;;5069230;28;20482;-87
2023/07/23 01:37:37;;;;;;;10.88;6.53;;;14.30;99.90;;;;;;5069341;28;20048;-88
2023/07/23 01:40:03;;;;;;;9.20;6.53;;;14.30;99.90;;;;;;5052443;28;20055;-86
2023/07/23 01:42:31;;;;;;;9.80;6.70;;;14.30;99.90;;;;;;5068865;28;20048;-86
2023/07/23 01:45:02;;;;;;;9.73;6.82;;;14.50;99.90;;;;;;5073106;28;20410;-86
2023/07/23 01:47:28;;;;;;;9.40;7.07;;;14.30;99.90;;;;;;5069644;28;20051;-87
2023/07/23 01:49:54;;;;;;;9.25;6.80;;;14.30;99.90;;;;;;5088516;28;20071;-87
2023/07/23 01:52:19;;;;;;;10.80;6.50;;;14.30;99.90;;;;;;5088596;28;20067;-87
2023/07/23 01:54:45;;;;;;;10.77;7.00;;;14.30;99.90;;;;;;5072578;28;20036;-87
2023/07/23 01:57:11;;;;;;;10.30;7.38;;;14.30;99.90;;;;;;5081036;28;20402;-87
2023/07/23 01:59:36;;;;;;;8.82;7.13;;;14.30;99.90;;;;;;5081428;28;20044;-87
2023/07/23 02:02:04;;;;;;;12.25;7.40;;;14.30;99.90;;;;;;5087716;28;20142;-86
2023/07/23 02:04:30;;;;;;;8.38;6.97;;;14.30;99.90;;;;;;5063897;28;20044;-87
2023/07/23 02:06:55;;;;;;;8.90;7.18;;;14.30;99.90;;;;;;5068776;28;20044;-87
2023/07/23 02:09:21;;;;;;;11.40;7.53;;;14.30;99.90;;;;;;5070581;28;20052;-87
2023/07/23 02:11:47;;;;;;;10.82;7.55;;;14.40;99.90;;;;;;5079472;28;20048;-87
2023/07/23 02:14:13;;;;;;;12.20;7.55;;;14.40;99.90;;;;;;5068885;28;20074;-87
2023/07/23 02:16:39;;;;;;;11.80;7.07;;;14.30;99.90;;;;;;5068852;28;20079;-87
2023/07/23 02:19:05;;;;;;;12.75;7.85;;;14.30;99.90;;;;;;5075657;28;20060;-87
2023/07/23 02:21:31;;;;;;;8.93;7.15;;;14.40;99.90;;;;;;5068247;28;20048;-86
2023/07/23 02:23:56;;;;;;;10.88;7.30;;;14.30;99.90;;;;;;5051947;28;20048;-86
2023/07/23 02:26:22;;;;;;;9.73;7.35;;;14.30;99.90;;;;;;5051364;28;20123;-87
2023/07/23 02:28:48;;;;;;;13.43;7.53;;;14.40;99.90;;;;;;5072233;28;20082;-87
2023/07/23 02:31:13;;;;;;;11.50;7.45;;;14.40;99.90;;;;;;5074083;28;20070;-87
2023/07/23 02:33:39;;;;;;;11.10;7.15;;;14.40;99.90;;;;;;5067683;28;20044;-87
2023/07/23 02:36:05;;;;;;;10.65;7.03;;;14.40;99.90;;;;;;5050871;28;20044;-88
2023/07/23 02:38:30;;;;;;;10.52;7.95;;;14.40;99.90;;;;;;5067192;28;20044;-87
2023/07/23 02:40:57;;;;;;;9.40;7.72;;;14.40;99.90;;;;;;5068838;28;20048;-88
2023/07/23 02:43:22;;;;;;;13.98;8.27;;;14.40;99.90;;;;;;5087814;28;20059;-87
2023/07/23 02:45:49;;;;;;;12.00;7.53;;;14.40;99.90;;;;;;5066403;28;20499;-87
2023/07/23 02:48:14;;;;;;;9.93;7.57;;;14.40;99.90;;;;;;5067742;28;20055;-87
2023/07/23 02:50:40;;;;;;;11.20;8.02;;;14.40;99.90;;;;;;5066848;28;20040;-87
2023/07/23 02:53:06;;;;;;;10.68;8.07;;;14.60;99.90;;;;;;5067689;28;20128;-87
2023/07/23 02:55:33;;;;;;;11.93;8.43;;;14.30;99.90;;;;;;5084696;28;20127;-87
2023/07/23 02:58:00;;;;;;;13.55;8.27;;;14.40;99.90;;;;;;5051380;28;20036;-88
2023/07/23 03:00:28;;;;;;;10.73;7.60;;;14.30;99.90;;;;;;5050729;28;20044;-87
2023/07/23 03:02:54;;;;;;;12.10;7.78;;;14.30;99.90;;;;;;5068263;28;20057;-87
2023/07/23 03:05:20;;;;;;;12.00;8.40;;;14.40;99.90;;;;;;5080978;28;20058;-88
2023/07/23 03:07:45;;;;;;;9.75;7.30;;;14.80;99.90;;;;;;5077132;28;20135;-87
2023/07/23 03:10:11;;;;;;;9.95;7.97;;;14.40;99.90;;;;;;5067542;28;20040;-89
2023/07/23 03:12:36;;;;;;;10.20;8.05;;;14.30;99.90;;;;;;5083149;28;20056;-88
2023/07/23 03:15:02;;;;;;;10.02;8.02;;;14.40;99.90;;;;;;5051956;28;20055;-88
2023/07/23 03:17:28;;;;;;;11.55;8.20;;;14.40;99.90;;;;;;5067530;28;20087;-87
2023/07/23 03:19:54;;;;;;;12.85;8.23;;;14.40;99.90;;;;;;5067515;28;20041;-86
2023/07/23 03:22:20;;;;;;;9.77;7.72;;;14.30;99.90;;;;;;5067633;28;20033;-89
2023/07/23 03:24:45;;;;;;;11.23;8.07;;;14.40;99.90;;;;;;5067484;28;20087;-88
2023/07/23 03:27:11;;;;;;;10.65;8.45;;;14.40;99.90;;;;;;5082722;28;20502;-88
2023/07/23 03:29:37;;;;;;;11.52;7.65;;;14.40;99.90;;;;;;5087207;28;20052;-88
2023/07/23 03:32:03;;;;;;;12.23;8.00;;;14.40;99.90;;;;;;5087770;28;20080;-87
2023/07/23 03:34:30;;;;;;;10.10;8.23;;;14.40;99.90;;;;;;5070816;28;20082;-88
2023/07/23 03:36:56;;;;;;;12.48;7.60;;;14.70;99.90;;;;;;5087051;28;20066;-87
2023/07/23 03:39:21;;;;;;;14.82;8.90;;;14.40;99.90;;;;;;5087620;28;20082;-87
2023/07/23 03:41:47;;;;;;;12.25;8.30;;;14.40;99.90;;;;;;5069946;28;20150;-88
2023/07/23 03:44:13;;;;;;;10.73;7.95;;;14.40;99.90;;;;;;5081934;28;20044;-88
2023/07/23 03:46:44;;;;;;;11.13;8.07;;;14.40;99.90;;;;;;5087577;28;20425;-87
2023/07/23 03:49:10;;;;;;;9.18;7.32;;;14.40;99.90;;;;;;5068221;28;20040;-87
2023/07/23 03:51:35;;;;;;;13.85;7.95;;;14.40;99.90;;;;;;5051946;28;20048;-87
2023/07/23 03:54:01;;;;;;;12.05;7.93;;;14.60;99.90;;;;;;5071462;28;20040;-87
2023/07/23 03:56:27;;;;;;;10.07;8.13;;;14.40;99.90;;;;;;5091281;28;20147;-88
2023/07/23 03:58:52;;;;;;;10.23;7.60;;;14.50;99.90;;;;;;5073191;28;20040;-87
2023/07/23 04:01:18;;;;;;;14.07;8.90;;;14.40;99.90;;;;;;5072193;28;20048;-88
2023/07/23 04:03:45;;;;;;;12.30;7.30;;;14.40;99.90;;;;;;5054145;28;20514;-87
2023/07/23 04:06:11;;;;;;;9.13;8.05;;;14.80;99.90;;;;;;5071088;28;20395;-88
2023/07/23 04:08:36;;;;;;;8.98;7.93;;;14.50;99.90;;;;;;5091774;28;20048;-88
2023/07/23 04:11:02;;;;;;;13.45;8.18;;;14.90;99.90;;;;;;5090764;28;20044;-87
2023/07/23 04:13:28;;;;;;;11.55;8.20;;;14.60;99.90;;;;;;5075552;28;20355;-87
2023/07/23 04:15:53;;;;;;;11.70;8.18;;;14.50;99.90;;;;;;5070550;28;20402;-88
2023/07/23 04:18:19;;;;;;;11.77;8.30;;;14.50;99.90;;;;;;5070792;28;20041;-88
2023/07/23 04:20:44;;;;;;;11.27;7.60;;;14.50;99.90;;;;;;5073672;28;20471;-87
2023/07/23 04:23:10;;;;;;;13.40;7.95;;;14.50;99.90;;;;;;5083160;28;20108;-88
2023/07/23 04:25:36;;;;;;;9.70;7.82;;;14.50;99.90;;;;;;5087662;28;20101;-87
2023/07/23 04:28:03;;;;;;;12.98;8.38;;;14.50;99.90;;;;;;5073932;28;20097;-87
2023/07/23 04:30:28;;;;;;;13.30;8.18;;;14.50;99.90;;;;;;5089947;28;20504;-87
2023/07/23 04:32:54;;;;;;;13.15;7.85;;;14.50;99.90;;;;;;5074336;28;20099;-88
2023/07/23 04:35:21;;;;;;;10.93;8.23;;;14.70;99.90;;;;;;5085159;28;20033;-86
2023/07/23 04:37:46;;;;;;;10.85;8.35;;;14.60;99.90;;;;;;5057986;28;20050;-87
2023/07/23 04:40:12;;;;;;;11.57;8.70;;;14.60;99.90;;;;;;5085056;28;20048;-87
2023/07/23 04:42:38;;;;;;;11.38;9.32;;;14.60;99.90;;;;;;5090341;28;20147;-87
2023/07/23 04:45:04;;;;;;;10.82;8.40;;;14.60;99.90;;;;;;5090514;28;20506;-88
2023/07/23 04:47:30;;;;;;;12.35;8.63;;;14.70;99.90;;;;;;5087480;28;20074;-89
2023/07/23 04:49:57;;;;;;;11.15;8.45;;;14.70;99.90;;;;;;5070497;28;20133;-88
2023/07/23 04:52:23;;;;;;;13.52;9.15;;;14.70;99.90;;;;;;5053709;28;20085;-87
2023/07/23 04:54:49;;;;;;;13.00;8.63;;;14.60;99.90;;;;;;5069535;28;20044;-87
2023/07/23 04:57:15;;;;;;;10.63;9.20;;;14.60;99.90;;;;;;5053787;28;20058;-86
2023/07/23 04:59:41;;;;;;;10.77;8.90;;;14.70;99.90;;;;;;5085441;28;20542;-87
2023/07/23 05:02:06;;;;;;;13.20;9.20;;;14.60;99.90;;;;;;5071155;28;20040;-87
2023/07/23 05:04:33;;;;;;;11.70;8.30;;;14.70;99.90;;;;;;5052610;28;20449;-86
2023/07/23 05:06:59;;;;;;;11.18;8.63;;;14.60;99.90;;;;;;5052879;28;20530;-86
2023/07/23 05:09:25;;;;;;;10.07;8.32;;;14.70;99.90;;;;;;5069312;28;20048;-87
2023/07/23 05:11:50;;;;;;;12.52;8.75;;;14.70;99.90;;;;;;5053808;28;20041;-87
2023/07/23 05:14:16;;;;;;;13.50;8.70;;;14.60;99.90;;;;;;5071392;28;20462;-86
2023/07/23 05:16:42;;;;;;;11.60;8.25;;;14.90;99.90;;;;;;5072246;28;20075;-86
2023/07/23 05:19:07;;;;;;;11.93;8.77;;;14.70;99.90;;;;;;5081717;28;20048;-86
2023/07/23 05:21:36;;;;;;;12.32;8.38;;;14.70;99.90;;;;;;5083445;28;20102;-86
2023/07/23 05:24:04;;;;;;;11.88;8.68;;;14.40;99.90;;;;;;5070817;28;20044;-88
2023/07/23 05:26:30;;;;;;;12.73;8.93;;;14.70;99.90;;;;;;5075392;28;20097;-86
2023/07/23 05:28:56;;;;;;;10.13;8.68;;;14.80;99.90;;;;;;5084468;28;20507;-87
2023/07/23 05:31:21;;;;;;;9.18;8.23;;;14.90;99.90;;;;;;5069277;28;20148;-87
2023/07/23 05:33:47;;;;;;;11.43;8.65;;;14.80;99.90;;;;;;5090212;28;20577;-89
2023/07/23 05:36:13;;;;;;;12.57;9.48;;;14.80;99.90;;;;;;5090378;28;20093;-88
2023/07/23 05:38:38;;;;;;;11.02;7.97;;;14.90;99.90;;;;;;5061057;28;20084;-87
2023/07/23 05:41:04;;;;;;;10.45;8.80;;;15.00;99.90;;;;;;5061144;28;20049;-89
2023/07/23 05:43:30;;;;;;;14.57;8.70;;;15.00;99.90;;;;;;5059998;28;20457;-88
2023/07/23 05:45:56;;;;;;;11.35;8.10;;;15.30;99.90;;;;;;5076091;28;20059;-88
2023/07/23 05:48:22;;;;;;;11.23;8.85;;;15.10;99.90;;;;;;5090897;28;20470;-88
2023/07/23 05:50:49;;;;;;;12.32;8.60;;;15.10;99.90;;;;;;5053678;28;20047;-88
2023/07/23 05:53:18;;;;;;;12.27;8.88;;;15.40;99.90;;;;;;5081990;28;20047;-91
2023/07/23 05:55:50;;;;;;;13.57;8.98;;;15.10;99.90;;;;;;5055437;28;20047;-89
2023/07/23 05:58:16;;;;;;;10.00;8.88;;;15.20;99.90;;;;;;5055890;28;21085;-88
2023/07/23 06:00:50;;;;;;;10.68;8.25;;;15.50;99.90;;;;;;5060040;28;20044;-90
2023/07/23 06:03:15;;;;;;;13.00;8.77;;;15.30;99.90;;;;;;5058537;28;20048;-90
2023/07/23 06:05:41;;;;;;;12.98;9.68;;;15.30;99.90;;;;;;5072684;28;20055;-89
2023/07/23 06:08:07;;;;;;;11.02;8.50;;;15.30;99.90;;;;;;5072801;28;20051;-88
2023/07/23 06:10:33;;;;;;;10.82;8.93;;;15.30;99.90;;;;;;5064132;28;20509;-90
2023/07/23 06:12:58;;;;;;;12.20;8.38;;;15.40;99.90;;;;;;5067944;28;20040;-89
2023/07/23 06:15:24;;;;;;;12.77;9.35;;;15.50;99.90;;;;;;5066466;28;20043;-87
2023/07/23 06:17:53;;;;;;;14.02;8.77;;;15.50;99.90;;;;;;5073028;28;20051;-89
2023/07/23 06:20:21;;;;;;;13.45;8.73;;;15.60;99.90;;;;;;5080178;28;20047;-89
2023/07/23 06:22:47;;;;;;;10.20;8.95;;;15.50;99.90;;;;;;5083826;28;20328;-88
2023/07/23 06:25:13;;;;;;;10.20;8.20;;;15.50;99.90;;;;;;5077701;28;20101;-89
2023/07/23 06:27:38;;;;;;;11.45;8.45;;;15.60;99.90;;;;;;5074857;28;20477;-90
2023/07/23 06:30:05;;;;;;;9.80;8.57;;;15.80;99.90;;;;;;5063162;28;20052;-92
2023/07/23 06:32:30;;;;;;;13.13;8.77;;;15.70;99.90;;;;;;5053280;28;20032;-87
2023/07/23 06:34:56;;;;;;;11.90;9.05;;;15.60;99.90;;;;;;5058773;28;20044;-91
2023/07/23 06:37:22;;;;;;;12.77;8.52;;;15.70;99.90;;;;;;5068007;28;20048;-90
2023/07/23 06:39:49;;;;;;;15.05;9.02;;;15.90;99.90;;;;;;5058420;28;20048;-90
2023/07/23 06:42:17;;;;;;;10.38;8.10;;;15.90;99.90;;;;;;5060397;28;20366;-91
2023/07/23 06:44:42;;;;;;;11.05;8.77;;;16.00;99.90;;;;;;5068768;28;20132;-91
2023/07/23 06:47:13;;;;;;;12.13;8.20;;;16.10;99.90;;;;;;5061055;28;20466;-91
2023/07/23 06:49:39;;;;;;;10.07;8.43;;;16.20;99.90;;;;;;5070133;28;20052;-92
2023/07/23 06:52:16;;;;;;;12.88;8.95;;;16.00;99.90;;;;;;5054635;28;20090;-91
2023/07/23 06:54:42;;;;;;;9.52;8.10;;;16.00;99.90;;;;;;5061774;28;20134;-90
2023/07/23 06:57:08;;;;;;;10.90;8.40;;;16.20;99.90;;;;;;5071049;28;20127;-87
2023/07/23 06:59:34;;;;;;;10.13;8.02;;;16.00;99.90;;;;;;5060529;28;20435;-92
2023/07/23 07:02:00;;;;;;;12.38;8.43;;;16.20;99.90;;;;;;5056637;28;20106;-92
2023/07/23 07:04:28;;;;;;;16.77;8.57;;;15.90;99.90;;;;;;5062920;28;20044;-92
2023/07/23 07:06:53;;;;;;;11.57;8.50;;;16.30;99.90;;;;;;5065140;28;20036;-93
2023/07/23 07:09:21;;;;;;;11.10;8.90;;;16.10;99.90;;;;;;5058247;28;20040;-92
2023/07/23 07:11:50;;;;;;;9.93;8.32;;;15.80;99.90;;;;;;5060600;28;20032;-84
2023/07/23 07:14:15;;;;;;;10.18;8.27;;;16.20;99.90;;;;;;5053712;28;20048;-86
2023/07/23 07:16:41;;;;;;;11.07;8.73;;;16.30;99.90;;;;;;5064976;28;20111;-86
2023/07/23 07:19:16;;;;;;;13.05;8.40;;;16.10;99.90;;;;;;5073421;28;21758;-87
2023/07/23 07:21:42;;;;;;;12.45;8.65;;;16.50;99.90;;;;;;5064877;28;20873;-86
2023/07/23 07:24:08;;;;;;;13.38;9.15;;;16.10;99.90;;;;;;5056043;28;20493;-86
2023/07/23 07:26:34;;;;;;;13.48;8.27;;;16.10;99.90;;;;;;5058788;28;20043;-85
2023/07/23 07:29:00;;;;;;;15.70;8.88;;;16.00;99.90;;;;;;5072244;28;20052;-86
2023/07/23 07:31:26;;;;;;;13.30;8.75;;;16.10;99.90;;;;;;5055905;28;20051;-86
2023/07/23 07:33:51;;;;;;;11.63;8.45;;;16.20;99.90;;;;;;5056701;28;20437;-86
2023/07/23 07:36:17;;;;;;;14.63;8.55;;;15.90;99.90;;;;;;5075738;28;20043;-86
2023/07/23 07:38:45;;;;;;;10.65;8.15;;;16.20;99.90;;;;;;5057271;28;20052;-85
2023/07/23 07:41:12;;;;;;;11.82;8.15;;;16.20;99.90;;;;;;5057081;28;20047;-84
2023/07/23 07:43:38;;;;;;;11.90;8.77;;;16.20;99.90;;;;;;5062958;28;20032;-88
2023/07/23 07:46:05;;;;;;;10.93;8.45;;;16.20;99.90;;;;;;5066301;28;20506;-85
2023/07/23 07:48:31;;;;;;;11.07;8.52;;;16.10;99.90;;;;;;5071104;28;20128;-85
2023/07/23 07:51:03;;;;;;;12.68;8.98;;;16.10;99.90;;;;;;5050308;28;20135;-85
2023/07/23 07:53:29;;;;;;;;;;;16.10;99.90;;;;;;5066568;28;20140;-85
2023/07/23 07:55:56;;;;;;;13.65;8.07;;;16.00;99.90;;;;;;5066225;28;19954;-86
2023/07/23 07:58:24;;;;;;;14.38;8.75;;;16.00;99.90;;;;;;5078789;28;20040;-85
2023/07/23 08:00:58;;;;;;;13.50;7.82;;;16.00;99.90;;;;;;5067530;28;20586;-85
2023/07/23 08:03:26;;;;;;;12.13;8.48;;;15.90;99.90;;;;;;5085496;28;20052;-84
2023/07/23 08:05:52;;;;;;;11.60;7.57;;;15.90;99.90;;;;;;5080583;28;20767;-85
2023/07/23 08:08:26;;;;;;;10.50;8.18;;;15.90;99.90;;;;;;5073494;28;20690;-85
2023/07/23 08:11:00;;;;;;;10.68;7.88;;;15.80;99.90;;;;;;5049504;28;20662;-85
2023/07/23 08:13:27;;;;;;;11.02;8.60;;;15.90;99.90;;;;;;5065489;28;20120;-84
2023/07/23 08:15:54;;;;;;;12.02;8.10;;;15.90;99.90;;;;;;5052616;28;20059;-85
2023/07/23 08:18:20;;;;;;;9.13;6.88;;;16.00;99.90;;;;;;5073922;28;20032;-84
2023/07/23 08:20:46;;;;;;;12.60;8.23;;;15.90;99.90;;;;;;5048656;28;20459;-85
2023/07/23 08:23:12;;;;;;;10.07;8.02;;;16.00;99.90;;;;;;5066464;28;20075;-84
2023/07/23 08:25:39;;;;;;;12.02;7.60;;;16.10;99.90;;;;;;5049434;28;20044;-86
2023/07/23 08:28:07;;;;;;;11.40;7.85;;;16.30;99.90;;;;;;5065984;28;20056;-84
2023/07/23 08:30:33;;;;;;;13.82;8.13;;;16.30;99.90;;;;;;5071002;28;20045;-86
2023/07/23 08:33:03;;;;;;;9.57;7.13;;;16.30;99.90;;;;;;5066651;28;20871;-87
2023/07/23 08:35:29;;;;;;;10.60;7.50;;;16.30;99.90;;;;;;5057075;28;20478;-85
2023/07/23 08:37:56;;;;;;;10.45;7.05;;;16.30;99.90;;;;;;5081330;28;20142;-86
2023/07/23 08:40:24;;;;;;;9.15;6.88;;;16.30;99.90;;;;;;5061951;28;20060;-87
2023/07/23 08:43:17;;;;;;;8.82;7.05;;;16.40;99.90;;;;;;5054389;28;20159;-87
2023/07/23 08:46:15;;;;;;;8.00;6.95;;;16.40;99.90;;;;;;5051575;28;20040;-86
2023/07/23 08:49:01;;;;;;;9.05;7.20;;;16.40;99.90;;;;;;5063451;28;20090;-85
2023/07/23 08:51:46;;;;;;;9.73;6.95;;;16.20;99.90;;;;;;5060181;28;20052;-89
2023/07/23 08:54:13;;;;;;;9.02;6.93;;;16.30;99.90;;;;;;5085713;28;20127;-86
2023/07/23 08:56:40;;;;;;;8.45;7.03;;;16.20;99.90;;;;;;5065384;28;20056;-84
2023/07/23 08:59:08;;;;;;;7.90;6.38;;;16.20;99.90;;;;;;5060948;28;20039;-87
2023/07/23 09:01:38;;;;;;;7.95;7.00;;;16.20;99.90;;;;;;5063244;28;20047;-87
2023/07/23 09:04:06;;;;;;;8.35;6.53;;;16.10;99.90;;;;;;5082844;28;20391;-85
2023/07/23 09:06:32;;;;;;;11.52;6.65;;;16.30;99.90;;;;;;5068685;28;20052;-85
2023/07/23 09:09:03;;;;;;;7.70;6.90;;;16.10;99.90;;;;;;5074600;28;20048;-85
2023/07/23 09:11:29;;;;;;;7.88;6.18;;;15.90;99.90;;;;;;5068688;28;20091;-85
2023/07/23 09:14:01;;;;;;;8.32;6.30;;;16.10;99.90;;;;;;5051776;28;20040;-87
2023/07/23 09:16:27;;;;;;;8.15;6.43;;;16.20;99.90;;;;;;5050233;28;20068;-86
2023/07/23 09:18:53;;;;;;;8.32;6.70;;;16.10;99.90;;;;;;5051415;28;20075;-84
2023/07/23 09:21:26;;;;;;;8.93;6.00;;;16.00;99.90;;;;;;5068606;28;20410;-84
2023/07/23 09:23:57;;;;;;;8.60;6.28;;;16.00;99.90;;;;;;5077612;28;20402;-85
2023/07/23 09:26:27;;;;;;;8.48;6.35;;;16.00;99.90;;;;;;5051492;28;20036;-85
2023/07/23 09:28:54;;;;;;;7.07;5.88;;;15.70;99.90;;;;;;5069906;28;20067;-84
2023/07/23 09:31:26;;;;;;;7.68;6.13;;;15.90;99.90;;;;;;5067804;28;20052;-86
2023/07/23 09:33:54;;;;;;;8.98;5.95;;;16.00;99.90;;;;;;5087790;28;20048;-87
2023/07/23 09:36:22;;;;;;;7.53;6.70;;;16.30;99.90;;;;;;5088543;28;20054;-86
2023/07/23 09:38:58;;;;;;;9.50;5.47;;;16.10;99.90;;;;;;5052458;28;20040;-87
2023/07/23 09:41:29;;;;;;;8.23;5.97;;;16.10;99.90;;;;;;5087753;28;20043;-84
2023/07/23 09:43:58;;;;;;;9.07;5.47;;;16.00;99.90;;;;;;5070563;28;20056;-87
2023/07/23 09:46:25;;;;;;;7.22;5.60;;;16.00;99.90;;;;;;5067427;28;20052;-85
2023/07/23 09:48:51;;;;;;;8.05;5.43;;;16.10;99.90;;;;;;5068096;28;20076;-86
2023/07/23 09:51:17;;;;;;;6.05;5.45;;;16.20;99.90;;;;;;5067417;28;20862;-86
2023/07/23 09:53:45;;;;;;;7.40;6.07;;;16.20;99.90;;;;;;5067966;28;20040;-85
2023/07/23 09:56:13;;;;;;;7.80;5.53;;;16.20;99.90;;;;;;5067678;28;20088;-86
2023/07/23 09:58:39;;;;;;;7.72;5.55;;;16.20;99.90;;;;;;5068019;28;20040;-85
2023/07/23 10:01:09;;;;;;;6.70;5.60;;;16.50;99.90;;;;;;5052913;28;20044;-85
2023/07/23 10:03:36;;;;;;;7.47;5.40;;;16.30;99.90;;;;;;5055079;28;20040;-84
2023/07/23 10:06:03;;;;;;;7.10;5.40;;;16.50;99.90;;;;;;5050193;28;20689;-85
2023/07/23 10:08:30;;;;;;;5.32;4.82;;;16.40;99.90;;;;;;5067528;28;20040;-88
2023/07/23 10:10:56;;;;;;;5.68;4.88;;;16.40;99.90;;;;;;5067307;28;20131;-86
2023/07/23 10:13:22;;;;;;;5.05;4.55;;;16.60;99.90;;;;;;5070464;28;20405;-85
2023/07/23 10:15:49;;;;;;;6.00;4.32;;;16.50;99.90;;;;;;5083158;28;20675;-85
2023/07/23 10:18:19;;;;;;;5.70;4.60;;;16.40;99.90;;;;;;5059416;28;20054;-84
2023/07/23 10:20:45;;;;;;;5.05;4.53;;;16.30;99.90;;;;;;5080604;28;20047;-84
2023/07/23 10:23:14;;;;;;;5.93;4.93;;;16.40;99.90;;;;;;5075157;28;20510;-84
2023/07/23 10:25:39;;;;;;;10.40;5.22;;;16.40;99.90;;;;;;5079430;28;20040;-83
2023/07/23 10:28:22;;;;;;;4.82;4.32;;;16.50;99.90;;;;;;5061875;28;20047;-86
2023/07/23 10:30:47;;;;;;;;;;;16.50;99.90;;;;;;5074812;28;20064;-84
2023/07/23 10:33:13;;;;;;;6.93;4.90;;;16.80;99.90;;;;;;5067431;28;19927;-84
2023/07/23 10:35:54;;;;;;;5.15;4.75;;;16.50;99.90;;;;;;5067623;28;20040;-85
2023/07/23 10:38:31;;;;;;;5.45;4.90;;;16.50;99.90;;;;;;5070695;28;20048;-85
2023/07/23 10:41:00;;;;;;;5.22;4.72;;;16.50;99.90;;;;;;5067534;28;20109;-85
2023/07/23 10:43:49;;;;;;;6.90;5.30;;;16.50;99.90;;;;;;5050662;28;20063;-86
2023/07/23 10:46:20;;;;;;;7.18;5.25;;;16.70;99.90;;;;;;5069902;28;20044;-85
2023/07/23 10:48:50;;;;;;;6.18;5.53;;;16.60;99.90;;;;;;5073374;28;20048;-85
2023/07/23 10:51:21;;;;;;;5.75;5.15;;;16.60;99.90;;;;;;5066167;28;20069;-84
2023/07/23 10:54:08;;;;;;;6.05;4.93;;;17.00;99.90;;;;;;5067892;28;20039;-85
2023/07/23 10:56:35;;;;;;;8.45;5.97;;;16.60;99.90;;;;;;5072061;28;20430;-85
2023/07/23 10:59:15;;;;;;;6.80;5.57;;;16.60;99.90;;;;;;5068940;28;20462;-85
2023/07/23 11:01:43;;;;;;;6.28;5.68;;;16.60;99.90;;;;;;5061174;28;20071;-86
2023/07/23 11:04:09;;;;;;;5.80;5.20;;;16.70;99.90;;;;;;5070665;28;20047;-82
2023/07/23 11:06:34;;;;;;;6.35;5.30;;;16.60;99.90;;;;;;5071707;28;20036;-84
2023/07/23 11:09:08;;;;;;;6.07;5.32;;;16.70;99.90;;;;;;5056109;28;20494;-85
2023/07/23 11:11:42;;;;;;;5.90;5.30;;;16.70;99.90;;;;;;5075021;28;20113;-85
2023/07/23 11:14:19;;;;;;;6.45;5.28;;;16.60;99.90;;;;;;5075656;28;20089;-83
2023/07/23 11:16:47;;;;;;;9.27;5.70;;;16.90;99.90;;;;;;5071373;28;20502;-85
2023/07/23 11:19:13;;;;;;;6.53;5.43;;;16.60;99.90;;;;;;5059643;28;20036;-84
2023/07/23 11:21:54;;;;;;;9.48;5.57;;;16.80;99.90;;;;;;5072793;28;20037;-86
2023/07/23 11:24:24;;;;;;;6.68;5.97;;;16.60;99.90;;;;;;5059034;28;20119;-81
2023/07/23 11:26:50;;;;;;;6.57;5.82;;;16.60;99.90;;;;;;5053838;28;20072;-85
2023/07/23 11:29:16;;;;;;;7.53;5.40;;;16.70;99.90;;;;;;5072116;28;20367;-85
2023/07/23 11:31:44;;;;;;;7.22;6.05;;;16.70;99.90;;;;;;5061380;28;20139;-83
2023/07/23 11:34:12;;;;;;;10.27;6.35;;;16.90;99.90;;;;;;5076095;28;20127;-84
2023/07/23 11:36:38;;;;;;;7.05;5.82;;;16.70;99.90;;;;;;5061567;28;20418;-83
2023/07/23 11:39:06;;;;;;;7.35;5.82;;;16.40;99.90;;;;;;5073822;28;20055;-85
2023/07/23 11:41:41;;;;;;;7.10;6.25;;;16.70;99.90;;;;;;5058324;28;20099;-85
2023/07/23 11:44:08;;;;;;;7.85;6.60;;;16.90;99.90;;;;;;5072871;28;20049;-84
2023/07/23 11:46:39;;;;;;;7.28;5.35;;;16.80;99.90;;;;;;5058515;28;20134;-84
2023/07/23 11:49:06;;;;;;;7.68;5.45;;;16.90;99.90;;;;;;5075621;28;20037;-83
2023/07/23 11:51:32;;;;;;;7.22;5.13;;;16.90;99.90;;;;;;5074674;28;20506;-84
2023/07/23 11:54:07;;;;;;;6.03;5.53;;;16.90;99.90;;;;;;5073245;28;20430;-84
2023/07/23 11:56:39;;;;;;;6.53;5.13;;;17.00;99.90;;;;;;5056209;28;20079;-83
2023/07/23 11:59:07;;;;;;;6.10;5.50;;;17.00;99.90;;;;;;5056618;28;20032;-84
2023/07/23 12:01:36;;;;;;;7.57;5.50;;;17.00;99.90;;;;;;5057751;28;20083;-84
2023/07/23 12:04:03;;;;;;;6.97;5.22;;;16.80;99.90;;;;;;5072245;28;20116;-82
2023/07/23 12:06:34;;;;;;;5.97;4.72;;;17.00;99.90;;;;;;5065195;28;20048;-83
2023/07/23 12:09:00;;;;;;;6.93;4.70;;;17.00;99.90;;;;;;5081521;28;20068;-83
2023/07/23 12:11:31;;;;;;;5.78;4.80;;;17.00;99.90;;;;;;5054276;28;20053;-83
2023/07/23 12:13:57;;;;;;;6.22;4.68;;;17.00;99.90;;;;;;5088126;28;20749;-82
2023/07/23 12:16:40;;;;;;;5.22;4.63;;;16.90;99.90;;;;;;5059425;28;20462;-84
2023/07/23 12:19:22;;;;;;;6.63;5.07;;;17.00;99.90;;;;;;5072889;28;20055;-83
2023/07/23 12:21:52;;;;;;;5.72;4.63;;;17.20;99.90;;;;;;5069636;28;20041;-83
2023/07/23 12:24:26;;;;;;;6.18;4.78;;;17.00;99.90;;;;;;5069626;28;20045;-83
2023/07/23 12:26:54;;;;;;;7.13;6.43;;;17.10;99.90;;;;;;5072771;28;20040;-85
2023/07/23 12:29:21;;;;;;;8.52;5.68;;;17.10;99.90;;;;;;5053331;28;20056;-84
2023/07/23 12:31:49;;;;;;;4.70;4.20;;;17.10;99.90;;;;;;5069940;28;20403;-84
2023/07/23 12:34:16;;;;;;;4.72;3.92;;;17.20;99.90;;;;;;5069870;28;20072;-83
2023/07/23 12:36:42;;;;;;;5.57;4.10;;;17.20;99.90;;;;;;5084702;28;20036;-84
2023/07/23 12:39:09;;;;;;;4.57;4.13;;;17.20;99.90;;;;;;5086311;28;20047;-83
2023/07/23 12:41:36;;;;;;;4.93;4.05;;;17.20;99.90;;;;;;5052768;28;20083;-82
2023/07/23 12:44:02;;;;;;;4.40;4.00;;;17.20;99.90;;;;;;5052867;28;20060;-84